sensor_id;sensor_type;location;lat;lon;timestamp;P1;durP1;ratioP1;P2;durP2;ratioP2
10651;SDS011;5374;42.742;23.266;2023-04-25T00:00:07;6.23;;;3.57;;
10651;SDS011;5374;42.742;23.266;2023-04-25T00:02:55;4.53;;;3.90;;
10651;SDS011;5374;42.742;23.266;2023-04-25T00:05:44;5.53;;;4.90;;
10651;SDS011;5374;42.742;23.266;2023-04-25T00:08:32;3.80;;;3.37;;
10651;SDS011;5374;42.742;23.266;2023-04-25T00:11:20;4.57;;;3.57;;
10651;SDS011;5374;42.742;23.266;2023-04-25T00:14:07;7.23;;;3.50;;
10651;SDS011;5374;42.742;23.266;2023-04-25T00:16:55;3.90;;;3.50;;
10651;SDS011;5374;42.742;23.266;2023-04-25T00:19:43;3.60;;;3.13;;
10651;SDS011;5374;42.742;23.266;2023-04-25T00:22:32;4.73;;;3.37;;
10651;SDS011;5374;42.742;23.266;2023-04-25T00:25:20;4.97;;;3.77;;
10651;SDS011;5374;42.742;23.266;2023-04-25T00:28:08;5.40;;;3.57;;
10651;SDS011;5374;42.742;23.266;2023-04-25T00:30:55;4.53;;;4.13;;
10651;SDS011;5374;42.742;23.266;2023-04-25T00:33:42;6.63;;;3.53;;
10651;SDS011;5374;42.742;23.266;2023-04-25T00:36:29;7.07;;;3.80;;
10651;SDS011;5374;42.742;23.266;2023-04-25T00:39:17;4.97;;;3.53;;
10651;SDS011;5374;42.742;23.266;2023-04-25T00:42:04;4.50;;;3.47;;
10651;SDS011;5374;42.742;23.266;2023-04-25T00:44:53;4.70;;;3.20;;
10651;SDS011;5374;42.742;23.266;2023-04-25T00:47:41;4.60;;;3.40;;
10651;SDS011;5374;42.742;23.266;2023-04-25T00:50:28;5.23;;;3.80;;
10651;SDS011;5374;42.742;23.266;2023-04-25T00:53:16;5.33;;;3.70;;
10651;SDS011;5374;42.742;23.266;2023-04-25T00:56:03;4.13;;;3.67;;
10651;SDS011;5374;42.742;23.266;2023-04-25T00:58:51;5.87;;;4.07;;
10651;SDS011;5374;42.742;23.266;2023-04-25T01:01:43;4.53;;;4.13;;
10651;SDS011;5374;42.742;23.266;2023-04-25T01:04:31;4.97;;;4.00;;
10651;SDS011;5374;42.742;23.266;2023-04-25T01:07:18;5.90;;;4.40;;
10651;SDS011;5374;42.742;23.266;2023-04-25T01:10:06;5.40;;;4.90;;
10651;SDS011;5374;42.742;23.266;2023-04-25T01:12:54;6.30;;;5.37;;
10651;SDS011;5374;42.742;23.266;2023-04-25T01:15:41;24.00;;;12.23;;
10651;SDS011;5374;42.742;23.266;2023-04-25T01:18:30;22.50;;;13.53;;
10651;SDS011;5374;42.742;23.266;2023-04-25T01:21:19;17.97;;;10.40;;
10651;SDS011;5374;42.742;23.266;2023-04-25T01:24:06;19.80;;;10.57;;
10651;SDS011;5374;42.742;23.266;2023-04-25T01:26:54;11.40;;;7.60;;
10651;SDS011;5374;42.742;23.266;2023-04-25T01:29:41;12.87;;;8.97;;
10651;SDS011;5374;42.742;23.266;2023-04-25T01:32:29;14.47;;;9.60;;
10651;SDS011;5374;42.742;23.266;2023-04-25T01:35:23;16.53;;;10.37;;
10651;SDS011;5374;42.742;23.266;2023-04-25T01:38:13;16.97;;;11.50;;
10651;SDS011;5374;42.742;23.266;2023-04-25T01:41:01;18.33;;;11.97;;
10651;SDS011;5374;42.742;23.266;2023-04-25T01:43:48;17.03;;;11.13;;
10651;SDS011;5374;42.742;23.266;2023-04-25T01:46:35;9.90;;;8.13;;
10651;SDS011;5374;42.742;23.266;2023-04-25T01:49:22;7.30;;;6.40;;
10651;SDS011;5374;42.742;23.266;2023-04-25T01:52:10;8.73;;;6.40;;
10651;SDS011;5374;42.742;23.266;2023-04-25T01:54:58;8.23;;;6.17;;
10651;SDS011;5374;42.742;23.266;2023-04-25T01:57:47;9.00;;;6.17;;
10651;SDS011;5374;42.742;23.266;2023-04-25T02:00:34;8.33;;;6.30;;
10651;SDS011;5374;42.742;23.266;2023-04-25T02:03:23;6.87;;;6.17;;
10651;SDS011;5374;42.742;23.266;2023-04-25T02:06:10;6.73;;;5.80;;
10651;SDS011;5374;42.742;23.266;2023-04-25T02:08:57;6.80;;;6.10;;
10651;SDS011;5374;42.742;23.266;2023-04-25T02:11:46;6.40;;;5.80;;
10651;SDS011;5374;42.742;23.266;2023-04-25T02:14:33;6.57;;;5.23;;
10651;SDS011;5374;42.742;23.266;2023-04-25T02:17:20;9.57;;;6.23;;
10651;SDS011;5374;42.742;23.266;2023-04-25T02:20:08;9.20;;;5.37;;
10651;SDS011;5374;42.742;23.266;2023-04-25T02:22:56;5.60;;;5.10;;
10651;SDS011;5374;42.742;23.266;2023-04-25T02:25:43;6.97;;;5.40;;
10651;SDS011;5374;42.742;23.266;2023-04-25T02:28:31;5.90;;;5.40;;
10651;SDS011;5374;42.742;23.266;2023-04-25T02:31:18;5.77;;;5.17;;
10651;SDS011;5374;42.742;23.266;2023-04-25T02:34:05;5.93;;;5.17;;
10651;SDS011;5374;42.742;23.266;2023-04-25T02:36:52;10.00;;;5.53;;
10651;SDS011;5374;42.742;23.266;2023-04-25T02:39:40;5.93;;;5.43;;
10651;SDS011;5374;42.742;23.266;2023-04-25T02:42:27;6.23;;;5.70;;
10651;SDS011;5374;42.742;23.266;2023-04-25T02:45:16;5.97;;;5.47;;
10651;SDS011;5374;42.742;23.266;2023-04-25T02:48:03;7.17;;;6.43;;
10651;SDS011;5374;42.742;23.266;2023-04-25T02:50:50;7.60;;;6.20;;
10651;SDS011;5374;42.742;23.266;2023-04-25T02:53:37;7.53;;;6.83;;
10651;SDS011;5374;42.742;23.266;2023-04-25T02:56:25;8.13;;;7.33;;
10651;SDS011;5374;42.742;23.266;2023-04-25T02:59:12;7.93;;;7.23;;
10651;SDS011;5374;42.742;23.266;2023-04-25T03:02:01;8.20;;;7.00;;
10651;SDS011;5374;42.742;23.266;2023-04-25T03:04:48;8.33;;;7.53;;
10651;SDS011;5374;42.742;23.266;2023-04-25T03:07:35;11.23;;;9.07;;
10651;SDS011;5374;42.742;23.266;2023-04-25T03:10:25;10.10;;;9.10;;
10651;SDS011;5374;42.742;23.266;2023-04-25T03:13:13;11.07;;;9.10;;
10651;SDS011;5374;42.742;23.266;2023-04-25T03:16:00;12.67;;;9.83;;
10651;SDS011;5374;42.742;23.266;2023-04-25T03:18:49;15.40;;;12.00;;
10651;SDS011;5374;42.742;23.266;2023-04-25T03:21:36;15.50;;;11.97;;
10651;SDS011;5374;42.742;23.266;2023-04-25T03:24:23;16.70;;;13.30;;
10651;SDS011;5374;42.742;23.266;2023-04-25T03:27:12;19.53;;;13.50;;
10651;SDS011;5374;42.742;23.266;2023-04-25T03:29:59;17.70;;;13.73;;
10651;SDS011;5374;42.742;23.266;2023-04-25T03:32:46;18.50;;;14.17;;
10651;SDS011;5374;42.742;23.266;2023-04-25T03:35:35;19.73;;;13.50;;
10651;SDS011;5374;42.742;23.266;2023-04-25T03:38:22;19.33;;;13.60;;
10651;SDS011;5374;42.742;23.266;2023-04-25T03:41:09;15.13;;;12.23;;
10651;SDS011;5374;42.742;23.266;2023-04-25T03:43:56;14.37;;;11.40;;
10651;SDS011;5374;42.742;23.266;2023-04-25T03:46:43;15.73;;;11.33;;
10651;SDS011;5374;42.742;23.266;2023-04-25T03:49:30;14.07;;;11.67;;
10651;SDS011;5374;42.742;23.266;2023-04-25T03:52:19;18.43;;;12.27;;
10651;SDS011;5374;42.742;23.266;2023-04-25T03:55:06;15.63;;;12.47;;
10651;SDS011;5374;42.742;23.266;2023-04-25T03:57:54;18.90;;;13.67;;
10651;SDS011;5374;42.742;23.266;2023-04-25T04:00:42;17.97;;;13.67;;
10651;SDS011;5374;42.742;23.266;2023-04-25T04:03:29;13.37;;;8.70;;
10651;SDS011;5374;42.742;23.266;2023-04-25T04:06:16;9.83;;;7.80;;
10651;SDS011;5374;42.742;23.266;2023-04-25T04:09:05;8.17;;;7.07;;
10651;SDS011;5374;42.742;23.266;2023-04-25T04:11:56;12.27;;;7.33;;
10651;SDS011;5374;42.742;23.266;2023-04-25T04:14:43;9.13;;;7.00;;
10651;SDS011;5374;42.742;23.266;2023-04-25T04:17:30;11.00;;;8.17;;
10651;SDS011;5374;42.742;23.266;2023-04-25T04:20:17;10.27;;;7.63;;
10651;SDS011;5374;42.742;23.266;2023-04-25T04:23:05;12.37;;;8.03;;
10651;SDS011;5374;42.742;23.266;2023-04-25T04:25:53;12.73;;;8.77;;
10651;SDS011;5374;42.742;23.266;2023-04-25T04:28:41;13.27;;;8.47;;
10651;SDS011;5374;42.742;23.266;2023-04-25T04:31:29;9.17;;;7.43;;
10651;SDS011;5374;42.742;23.266;2023-04-25T04:34:18;6.93;;;6.20;;
10651;SDS011;5374;42.742;23.266;2023-04-25T04:37:05;8.63;;;7.03;;
10651;SDS011;5374;42.742;23.266;2023-04-25T04:39:53;8.13;;;6.83;;
10651;SDS011;5374;42.742;23.266;2023-04-25T04:42:42;8.50;;;7.60;;
10651;SDS011;5374;42.742;23.266;2023-04-25T04:45:30;8.37;;;7.57;;
10651;SDS011;5374;42.742;23.266;2023-04-25T04:48:17;8.03;;;7.20;;
10651;SDS011;5374;42.742;23.266;2023-04-25T04:51:06;9.10;;;7.23;;
10651;SDS011;5374;42.742;23.266;2023-04-25T04:53:53;11.27;;;9.40;;
10651;SDS011;5374;42.742;23.266;2023-04-25T04:56:43;17.27;;;11.53;;
10651;SDS011;5374;42.742;23.266;2023-04-25T04:59:32;17.80;;;11.07;;
10651;SDS011;5374;42.742;23.266;2023-04-25T05:02:20;12.60;;;8.93;;
10651;SDS011;5374;42.742;23.266;2023-04-25T05:05:08;16.57;;;10.70;;
10651;SDS011;5374;42.742;23.266;2023-04-25T05:07:55;13.93;;;9.60;;
10651;SDS011;5374;42.742;23.266;2023-04-25T05:10:42;9.83;;;7.60;;
10651;SDS011;5374;42.742;23.266;2023-04-25T05:13:29;10.87;;;7.60;;
10651;SDS011;5374;42.742;23.266;2023-04-25T05:16:18;9.57;;;7.30;;
10651;SDS011;5374;42.742;23.266;2023-04-25T05:19:06;6.53;;;5.63;;
10651;SDS011;5374;42.742;23.266;2023-04-25T05:21:53;6.83;;;5.70;;
10651;SDS011;5374;42.742;23.266;2023-04-25T05:24:40;10.13;;;7.00;;
10651;SDS011;5374;42.742;23.266;2023-04-25T05:27:27;13.97;;;12.77;;
10651;SDS011;5374;42.742;23.266;2023-04-25T05:30:14;7.77;;;7.07;;
10651;SDS011;5374;42.742;23.266;2023-04-25T05:33:03;7.43;;;6.30;;
10651;SDS011;5374;42.742;23.266;2023-04-25T05:35:50;10.33;;;8.03;;
10651;SDS011;5374;42.742;23.266;2023-04-25T05:38:37;8.67;;;7.07;;
10651;SDS011;5374;42.742;23.266;2023-04-25T05:41:24;9.57;;;6.90;;
10651;SDS011;5374;42.742;23.266;2023-04-25T05:44:11;9.47;;;6.27;;
10651;SDS011;5374;42.742;23.266;2023-04-25T05:46:58;5.40;;;4.90;;
10651;SDS011;5374;42.742;23.266;2023-04-25T05:49:47;7.07;;;5.43;;
10651;SDS011;5374;42.742;23.266;2023-04-25T05:52:34;7.37;;;5.57;;
10651;SDS011;5374;42.742;23.266;2023-04-25T05:55:21;6.10;;;5.57;;
10651;SDS011;5374;42.742;23.266;2023-04-25T05:58:08;5.80;;;5.30;;
10651;SDS011;5374;42.742;23.266;2023-04-25T06:00:56;6.50;;;5.77;;
10651;SDS011;5374;42.742;23.266;2023-04-25T06:03:43;7.27;;;5.50;;
10651;SDS011;5374;42.742;23.266;2023-04-25T06:06:32;7.20;;;6.07;;
10651;SDS011;5374;42.742;23.266;2023-04-25T06:09:19;7.73;;;6.03;;
10651;SDS011;5374;42.742;23.266;2023-04-25T06:12:06;7.40;;;6.70;;
10651;SDS011;5374;42.742;23.266;2023-04-25T06:14:54;11.10;;;9.13;;
10651;SDS011;5374;42.742;23.266;2023-04-25T06:17:41;7.47;;;6.63;;
10651;SDS011;5374;42.742;23.266;2023-04-25T06:20:28;7.20;;;5.80;;
10651;SDS011;5374;42.742;23.266;2023-04-25T06:23:17;6.77;;;5.60;;
10651;SDS011;5374;42.742;23.266;2023-04-25T06:26:04;6.40;;;5.80;;
10651;SDS011;5374;42.742;23.266;2023-04-25T06:28:51;6.40;;;5.80;;
10651;SDS011;5374;42.742;23.266;2023-04-25T06:31:38;6.53;;;5.73;;
10651;SDS011;5374;42.742;23.266;2023-04-25T06:34:25;6.27;;;5.67;;
10651;SDS011;5374;42.742;23.266;2023-04-25T06:37:12;5.63;;;5.13;;
10651;SDS011;5374;42.742;23.266;2023-04-25T06:40:01;5.60;;;5.10;;
10651;SDS011;5374;42.742;23.266;2023-04-25T06:42:48;6.60;;;5.43;;
10651;SDS011;5374;42.742;23.266;2023-04-25T06:45:35;6.67;;;5.30;;
10651;SDS011;5374;42.742;23.266;2023-04-25T06:48:22;5.73;;;5.20;;
10651;SDS011;5374;42.742;23.266;2023-04-25T06:51:09;7.57;;;5.60;;
10651;SDS011;5374;42.742;23.266;2023-04-25T06:53:58;7.57;;;5.57;;
10651;SDS011;5374;42.742;23.266;2023-04-25T06:56:47;8.17;;;6.17;;
10651;SDS011;5374;42.742;23.266;2023-04-25T06:59:34;9.97;;;6.70;;
10651;SDS011;5374;42.742;23.266;2023-04-25T07:02:21;14.30;;;7.77;;
10651;SDS011;5374;42.742;23.266;2023-04-25T07:05:08;9.27;;;6.53;;
10651;SDS011;5374;42.742;23.266;2023-04-25T07:07:55;11.10;;;8.10;;
10651;SDS011;5374;42.742;23.266;2023-04-25T07:10:43;8.53;;;7.47;;
10651;SDS011;5374;42.742;23.266;2023-04-25T07:13:32;8.00;;;7.27;;
10651;SDS011;5374;42.742;23.266;2023-04-25T07:16:19;31.97;;;23.93;;
10651;SDS011;5374;42.742;23.266;2023-04-25T07:19:07;17.67;;;15.90;;
10651;SDS011;5374;42.742;23.266;2023-04-25T07:21:54;9.53;;;8.53;;
10651;SDS011;5374;42.742;23.266;2023-04-25T07:24:41;12.47;;;8.63;;
10651;SDS011;5374;42.742;23.266;2023-04-25T07:27:28;8.77;;;7.77;;
10651;SDS011;5374;42.742;23.266;2023-04-25T07:30:16;10.70;;;8.60;;
10651;SDS011;5374;42.742;23.266;2023-04-25T07:33:04;11.80;;;8.03;;
10651;SDS011;5374;42.742;23.266;2023-04-25T07:35:51;10.57;;;8.27;;
10651;SDS011;5374;42.742;23.266;2023-04-25T07:38:39;11.67;;;9.67;;
10651;SDS011;5374;42.742;23.266;2023-04-25T07:41:26;12.40;;;8.40;;
10651;SDS011;5374;42.742;23.266;2023-04-25T07:44:13;9.90;;;8.90;;
10651;SDS011;5374;42.742;23.266;2023-04-25T07:47:01;14.27;;;9.93;;
10651;SDS011;5374;42.742;23.266;2023-04-25T07:49:48;12.13;;;10.77;;
10651;SDS011;5374;42.742;23.266;2023-04-25T07:52:36;13.03;;;11.63;;
10651;SDS011;5374;42.742;23.266;2023-04-25T07:55:23;10.43;;;9.43;;
10651;SDS011;5374;42.742;23.266;2023-04-25T07:58:11;14.83;;;10.73;;
10651;SDS011;5374;42.742;23.266;2023-04-25T08:00:58;10.60;;;9.50;;
10651;SDS011;5374;42.742;23.266;2023-04-25T08:03:46;10.17;;;8.60;;
10651;SDS011;5374;42.742;23.266;2023-04-25T08:06:33;10.70;;;8.23;;
10651;SDS011;5374;42.742;23.266;2023-04-25T08:09:21;12.43;;;9.23;;
10651;SDS011;5374;42.742;23.266;2023-04-25T08:12:08;9.60;;;8.40;;
10651;SDS011;5374;42.742;23.266;2023-04-25T08:14:55;9.57;;;8.53;;
10651;SDS011;5374;42.742;23.266;2023-04-25T08:17:42;12.13;;;9.90;;
10651;SDS011;5374;42.742;23.266;2023-04-25T08:20:32;11.07;;;9.17;;
10651;SDS011;5374;42.742;23.266;2023-04-25T08:23:19;16.53;;;9.30;;
10651;SDS011;5374;42.742;23.266;2023-04-25T08:26:06;8.40;;;7.60;;
10651;SDS011;5374;42.742;23.266;2023-04-25T08:28:53;8.93;;;7.30;;
10651;SDS011;5374;42.742;23.266;2023-04-25T08:31:40;9.53;;;7.87;;
10651;SDS011;5374;42.742;23.266;2023-04-25T08:34:27;9.40;;;7.70;;
10651;SDS011;5374;42.742;23.266;2023-04-25T08:37:16;8.93;;;8.00;;
10651;SDS011;5374;42.742;23.266;2023-04-25T08:40:05;8.93;;;7.20;;
10651;SDS011;5374;42.742;23.266;2023-04-25T08:42:57;8.77;;;7.87;;
10651;SDS011;5374;42.742;23.266;2023-04-25T08:45:48;11.30;;;8.23;;
10651;SDS011;5374;42.742;23.266;2023-04-25T08:48:36;11.23;;;7.73;;
10651;SDS011;5374;42.742;23.266;2023-04-25T08:51:24;7.70;;;6.47;;
10651;SDS011;5374;42.742;23.266;2023-04-25T08:54:15;8.27;;;6.53;;
10651;SDS011;5374;42.742;23.266;2023-04-25T08:57:02;7.67;;;6.97;;
10651;SDS011;5374;42.742;23.266;2023-04-25T08:59:51;6.33;;;5.73;;
10651;SDS011;5374;42.742;23.266;2023-04-25T09:02:39;6.37;;;5.70;;
10651;SDS011;5374;42.742;23.266;2023-04-25T09:05:28;6.20;;;5.40;;
10651;SDS011;5374;42.742;23.266;2023-04-25T09:08:15;6.90;;;5.30;;
10651;SDS011;5374;42.742;23.266;2023-04-25T09:11:04;6.43;;;4.73;;
10651;SDS011;5374;42.742;23.266;2023-04-25T09:13:51;4.43;;;3.97;;
10651;SDS011;5374;42.742;23.266;2023-04-25T09:16:57;6.50;;;3.90;;
10651;SDS011;5374;42.742;23.266;2023-04-25T09:19:49;3.70;;;3.40;;
10651;SDS011;5374;42.742;23.266;2023-04-25T09:22:37;6.23;;;3.87;;
10651;SDS011;5374;42.742;23.266;2023-04-25T09:25:25;5.80;;;3.60;;
10651;SDS011;5374;42.742;23.266;2023-04-25T09:28:14;5.03;;;3.67;;
10651;SDS011;5374;42.742;23.266;2023-04-25T09:31:01;4.27;;;3.40;;
10651;SDS011;5374;42.742;23.266;2023-04-25T09:33:48;3.30;;;3.00;;
10651;SDS011;5374;42.742;23.266;2023-04-25T09:36:35;4.17;;;3.30;;
10651;SDS011;5374;42.742;23.266;2023-04-25T09:39:22;4.37;;;3.23;;
10651;SDS011;5374;42.742;23.266;2023-04-25T09:42:11;3.83;;;2.40;;
10651;SDS011;5374;42.742;23.266;2023-04-25T09:45:00;2.73;;;2.20;;
10651;SDS011;5374;42.742;23.266;2023-04-25T09:47:48;3.50;;;2.20;;
10651;SDS011;5374;42.742;23.266;2023-04-25T09:50:36;2.27;;;1.80;;
10651;SDS011;5374;42.742;23.266;2023-04-25T09:53:23;3.03;;;1.90;;
10651;SDS011;5374;42.742;23.266;2023-04-25T09:56:10;2.27;;;1.80;;
10651;SDS011;5374;42.742;23.266;2023-04-25T09:58:58;2.67;;;1.80;;
10651;SDS011;5374;42.742;23.266;2023-04-25T10:01:46;2.27;;;1.90;;
10651;SDS011;5374;42.742;23.266;2023-04-25T10:04:35;2.23;;;1.90;;
10651;SDS011;5374;42.742;23.266;2023-04-25T10:07:25;2.10;;;1.70;;
10651;SDS011;5374;42.742;23.266;2023-04-25T10:10:15;3.07;;;1.80;;
10651;SDS011;5374;42.742;23.266;2023-04-25T10:13:04;1.60;;;1.40;;
10651;SDS011;5374;42.742;23.266;2023-04-25T10:15:53;2.57;;;1.43;;
10651;SDS011;5374;42.742;23.266;2023-04-25T10:18:42;2.00;;;1.80;;
10651;SDS011;5374;42.742;23.266;2023-04-25T10:21:29;2.20;;;1.90;;
10651;SDS011;5374;42.742;23.266;2023-04-25T10:24:19;9.00;;;3.00;;
10651;SDS011;5374;42.742;23.266;2023-04-25T10:27:07;3.80;;;1.57;;
10651;SDS011;5374;42.742;23.266;2023-04-25T10:30:00;2.43;;;1.60;;
10651;SDS011;5374;42.742;23.266;2023-04-25T10:32:49;3.33;;;1.20;;
10651;SDS011;5374;42.742;23.266;2023-04-25T10:35:38;3.03;;;1.53;;
10651;SDS011;5374;42.742;23.266;2023-04-25T10:38:25;4.17;;;1.30;;
10651;SDS011;5374;42.742;23.266;2023-04-25T10:41:13;2.53;;;1.40;;
10651;SDS011;5374;42.742;23.266;2023-04-25T10:44:00;2.53;;;1.73;;
10651;SDS011;5374;42.742;23.266;2023-04-25T10:46:48;3.63;;;1.80;;
10651;SDS011;5374;42.742;23.266;2023-04-25T10:49:35;2.90;;;2.10;;
10651;SDS011;5374;42.742;23.266;2023-04-25T10:52:26;2.67;;;1.60;;
10651;SDS011;5374;42.742;23.266;2023-04-25T10:55:15;3.07;;;1.10;;
10651;SDS011;5374;42.742;23.266;2023-04-25T10:58:02;3.53;;;1.20;;
10651;SDS011;5374;42.742;23.266;2023-04-25T11:00:49;2.07;;;1.10;;
10651;SDS011;5374;42.742;23.266;2023-04-25T11:03:40;3.47;;;1.83;;
10651;SDS011;5374;42.742;23.266;2023-04-25T11:06:29;15.73;;;3.97;;
10651;SDS011;5374;42.742;23.266;2023-04-25T11:09:31;4.83;;;1.80;;
10651;SDS011;5374;42.742;23.266;2023-04-25T11:12:19;5.77;;;2.10;;
10651;SDS011;5374;42.742;23.266;2023-04-25T11:15:07;2.73;;;1.60;;
10651;SDS011;5374;42.742;23.266;2023-04-25T11:17:55;2.80;;;2.17;;
10651;SDS011;5374;42.742;23.266;2023-04-25T11:20:42;1.70;;;1.23;;
10651;SDS011;5374;42.742;23.266;2023-04-25T11:23:30;2.10;;;1.40;;
10651;SDS011;5374;42.742;23.266;2023-04-25T11:26:20;2.23;;;1.30;;
10651;SDS011;5374;42.742;23.266;2023-04-25T11:29:08;4.20;;;1.30;;
10651;SDS011;5374;42.742;23.266;2023-04-25T11:31:55;1.93;;;1.27;;
10651;SDS011;5374;42.742;23.266;2023-04-25T11:34:45;1.40;;;1.20;;
10651;SDS011;5374;42.742;23.266;2023-04-25T11:37:33;2.17;;;1.20;;
10651;SDS011;5374;42.742;23.266;2023-04-25T11:40:20;2.30;;;1.23;;
10651;SDS011;5374;42.742;23.266;2023-04-25T11:43:09;3.30;;;1.00;;
10651;SDS011;5374;42.742;23.266;2023-04-25T11:45:56;3.00;;;1.20;;
10651;SDS011;5374;42.742;23.266;2023-04-25T11:48:43;1.20;;;0.90;;
10651;SDS011;5374;42.742;23.266;2023-04-25T11:51:37;1.60;;;1.43;;
10651;SDS011;5374;42.742;23.266;2023-04-25T11:54:25;3.90;;;1.07;;
10651;SDS011;5374;42.742;23.266;2023-04-25T11:57:12;3.10;;;1.10;;
10651;SDS011;5374;42.742;23.266;2023-04-25T12:00:06;1.60;;;1.03;;
10651;SDS011;5374;42.742;23.266;2023-04-25T12:02:58;2.70;;;1.00;;
10651;SDS011;5374;42.742;23.266;2023-04-25T12:05:45;1.67;;;1.00;;
10651;SDS011;5374;42.742;23.266;2023-04-25T12:08:33;1.27;;;1.00;;
10651;SDS011;5374;42.742;23.266;2023-04-25T12:11:20;2.93;;;1.00;;
10651;SDS011;5374;42.742;23.266;2023-04-25T12:14:08;7.30;;;1.23;;
10651;SDS011;5374;42.742;23.266;2023-04-25T12:16:57;1.23;;;0.90;;
10651;SDS011;5374;42.742;23.266;2023-04-25T12:19:46;1.77;;;1.30;;
10651;SDS011;5374;42.742;23.266;2023-04-25T12:22:33;5.50;;;1.40;;
10651;SDS011;5374;42.742;23.266;2023-04-25T12:25:34;9.27;;;2.40;;
10651;SDS011;5374;42.742;23.266;2023-04-25T12:28:22;2.90;;;1.60;;
10651;SDS011;5374;42.742;23.266;2023-04-25T12:31:10;2.17;;;1.30;;
10651;SDS011;5374;42.742;23.266;2023-04-25T12:34:01;1.40;;;1.20;;
10651;SDS011;5374;42.742;23.266;2023-04-25T12:36:48;1.37;;;0.90;;
10651;SDS011;5374;42.742;23.266;2023-04-25T12:39:36;1.93;;;1.50;;
10651;SDS011;5374;42.742;23.266;2023-04-25T12:42:23;3.13;;;1.70;;
10651;SDS011;5374;42.742;23.266;2023-04-25T12:45:10;6.17;;;5.57;;
10651;SDS011;5374;42.742;23.266;2023-04-25T12:47:57;2.87;;;2.40;;
10651;SDS011;5374;42.742;23.266;2023-04-25T12:50:46;3.23;;;2.43;;
10651;SDS011;5374;42.742;23.266;2023-04-25T12:53:34;3.47;;;2.57;;
10651;SDS011;5374;42.742;23.266;2023-04-25T12:56:23;2.83;;;1.80;;
10651;SDS011;5374;42.742;23.266;2023-04-25T12:59:11;2.77;;;1.77;;
10651;SDS011;5374;42.742;23.266;2023-04-25T13:01:58;1.40;;;1.30;;
10651;SDS011;5374;42.742;23.266;2023-04-25T13:04:45;2.10;;;1.90;;
10651;SDS011;5374;42.742;23.266;2023-04-25T13:07:33;1.70;;;1.60;;
10651;SDS011;5374;42.742;23.266;2023-04-25T13:10:21;3.97;;;1.73;;
10651;SDS011;5374;42.742;23.266;2023-04-25T13:13:08;2.97;;;1.80;;
10651;SDS011;5374;42.742;23.266;2023-04-25T13:15:55;3.50;;;2.80;;
10651;SDS011;5374;42.742;23.266;2023-04-25T13:18:42;5.13;;;3.30;;
10651;SDS011;5374;42.742;23.266;2023-04-25T13:21:29;7.90;;;4.70;;
10651;SDS011;5374;42.742;23.266;2023-04-25T13:24:18;4.80;;;3.10;;
10651;SDS011;5374;42.742;23.266;2023-04-25T13:27:06;4.43;;;2.53;;
10651;SDS011;5374;42.742;23.266;2023-04-25T13:29:53;3.33;;;2.77;;
10651;SDS011;5374;42.742;23.266;2023-04-25T13:32:40;4.80;;;2.90;;
10651;SDS011;5374;42.742;23.266;2023-04-25T13:35:27;2.90;;;2.30;;
10651;SDS011;5374;42.742;23.266;2023-04-25T13:38:15;3.83;;;2.30;;
10651;SDS011;5374;42.742;23.266;2023-04-25T13:41:03;1.70;;;1.50;;
10651;SDS011;5374;42.742;23.266;2023-04-25T13:43:52;1.70;;;1.40;;
10651;SDS011;5374;42.742;23.266;2023-04-25T13:46:39;1.90;;;1.40;;
10651;SDS011;5374;42.742;23.266;2023-04-25T13:49:26;3.03;;;1.60;;
10651;SDS011;5374;42.742;23.266;2023-04-25T13:52:13;3.77;;;2.20;;
10651;SDS011;5374;42.742;23.266;2023-04-25T13:55:00;3.37;;;2.37;;
10651;SDS011;5374;42.742;23.266;2023-04-25T13:57:50;6.47;;;3.47;;
10651;SDS011;5374;42.742;23.266;2023-04-25T14:00:38;2.27;;;1.67;;
10651;SDS011;5374;42.742;23.266;2023-04-25T14:03:27;2.93;;;2.23;;
10651;SDS011;5374;42.742;23.266;2023-04-25T14:06:15;3.20;;;1.97;;
10651;SDS011;5374;42.742;23.266;2023-04-25T14:09:08;3.17;;;2.50;;
10651;SDS011;5374;42.742;23.266;2023-04-25T14:11:55;2.80;;;2.03;;
10651;SDS011;5374;42.742;23.266;2023-04-25T14:14:44;2.83;;;2.03;;
10651;SDS011;5374;42.742;23.266;2023-04-25T14:17:31;2.63;;;2.00;;
10651;SDS011;5374;42.742;23.266;2023-04-25T14:20:18;2.50;;;1.70;;
10651;SDS011;5374;42.742;23.266;2023-04-25T14:23:06;2.30;;;1.73;;
10651;SDS011;5374;42.742;23.266;2023-04-25T14:25:54;2.77;;;1.70;;
10651;SDS011;5374;42.742;23.266;2023-04-25T14:28:41;2.60;;;1.50;;
10651;SDS011;5374;42.742;23.266;2023-04-25T14:31:29;3.33;;;2.60;;
10651;SDS011;5374;42.742;23.266;2023-04-25T14:34:16;3.43;;;2.03;;
10651;SDS011;5374;42.742;23.266;2023-04-25T14:37:03;16.90;;;15.43;;
10651;SDS011;5374;42.742;23.266;2023-04-25T14:39:50;4.90;;;3.50;;
10651;SDS011;5374;42.742;23.266;2023-04-25T14:42:37;2.37;;;1.67;;
10651;SDS011;5374;42.742;23.266;2023-04-25T14:45:25;2.80;;;1.40;;
10651;SDS011;5374;42.742;23.266;2023-04-25T14:48:13;1.87;;;1.70;;
10651;SDS011;5374;42.742;23.266;2023-04-25T14:51:01;1.50;;;1.30;;
10651;SDS011;5374;42.742;23.266;2023-04-25T14:53:49;4.37;;;1.83;;
10651;SDS011;5374;42.742;23.266;2023-04-25T14:56:36;1.70;;;1.40;;
10651;SDS011;5374;42.742;23.266;2023-04-25T14:59:23;2.63;;;1.27;;
10651;SDS011;5374;42.742;23.266;2023-04-25T15:02:10;1.83;;;1.40;;
10651;SDS011;5374;42.742;23.266;2023-04-25T15:04:59;3.37;;;2.10;;
10651;SDS011;5374;42.742;23.266;2023-04-25T15:07:46;2.23;;;2.03;;
10651;SDS011;5374;42.742;23.266;2023-04-25T15:10:33;3.10;;;2.47;;
10651;SDS011;5374;42.742;23.266;2023-04-25T15:13:21;2.07;;;1.70;;
10651;SDS011;5374;42.742;23.266;2023-04-25T15:16:08;3.10;;;2.47;;
10651;SDS011;5374;42.742;23.266;2023-04-25T15:18:56;2.73;;;2.30;;
10651;SDS011;5374;42.742;23.266;2023-04-25T15:21:45;8.47;;;7.67;;
10651;SDS011;5374;42.742;23.266;2023-04-25T15:24:33;8.93;;;7.90;;
10651;SDS011;5374;42.742;23.266;2023-04-25T15:27:20;5.17;;;3.73;;
10651;SDS011;5374;42.742;23.266;2023-04-25T15:30:08;4.67;;;3.10;;
10651;SDS011;5374;42.742;23.266;2023-04-25T15:32:58;3.60;;;2.20;;
10651;SDS011;5374;42.742;23.266;2023-04-25T15:35:45;2.87;;;2.43;;
10651;SDS011;5374;42.742;23.266;2023-04-25T15:38:33;9.47;;;7.13;;
10651;SDS011;5374;42.742;23.266;2023-04-25T15:41:20;2.93;;;2.33;;
10651;SDS011;5374;42.742;23.266;2023-04-25T15:44:07;2.37;;;1.90;;
10651;SDS011;5374;42.742;23.266;2023-04-25T15:46:55;7.00;;;2.00;;
10651;SDS011;5374;42.742;23.266;2023-04-25T15:49:42;5.33;;;2.97;;
10651;SDS011;5374;42.742;23.266;2023-04-25T15:52:29;3.70;;;2.90;;
10651;SDS011;5374;42.742;23.266;2023-04-25T15:55:18;5.47;;;4.00;;
10651;SDS011;5374;42.742;23.266;2023-04-25T15:58:07;8.87;;;2.30;;
10651;SDS011;5374;42.742;23.266;2023-04-25T16:00:54;9.17;;;5.23;;
10651;SDS011;5374;42.742;23.266;2023-04-25T16:03:42;7.77;;;2.90;;
10651;SDS011;5374;42.742;23.266;2023-04-25T16:06:29;6.00;;;2.17;;
10651;SDS011;5374;42.742;23.266;2023-04-25T16:09:16;3.60;;;2.13;;
10651;SDS011;5374;42.742;23.266;2023-04-25T16:12:05;3.97;;;2.10;;
10651;SDS011;5374;42.742;23.266;2023-04-25T16:14:55;1.40;;;1.30;;
10651;SDS011;5374;42.742;23.266;2023-04-25T16:17:42;5.57;;;2.40;;
10651;SDS011;5374;42.742;23.266;2023-04-25T16:20:30;5.13;;;2.20;;
10651;SDS011;5374;42.742;23.266;2023-04-25T16:23:17;3.67;;;2.27;;
10651;SDS011;5374;42.742;23.266;2023-04-25T16:26:04;5.97;;;2.10;;
10651;SDS011;5374;42.742;23.266;2023-04-25T16:28:54;3.57;;;2.40;;
10651;SDS011;5374;42.742;23.266;2023-04-25T16:31:42;6.30;;;4.10;;
10651;SDS011;5374;42.742;23.266;2023-04-25T16:34:31;2.80;;;2.17;;
10651;SDS011;5374;42.742;23.266;2023-04-25T16:37:18;4.27;;;2.80;;
10651;SDS011;5374;42.742;23.266;2023-04-25T16:40:06;7.47;;;5.17;;
10651;SDS011;5374;42.742;23.266;2023-04-25T16:42:54;6.53;;;5.90;;
10651;SDS011;5374;42.742;23.266;2023-04-25T16:45:42;6.80;;;6.10;;